sensor_id;sensor_type;location;lat;lon;timestamp;temperature;humidity
1165;DHT22;571;50.930;6.926;2023-07-31T03:51:40;19.60;99.90
1165;DHT22;571;50.930;6.926;2023-07-31T03:55:10;19.70;99.90
1165;DHT22;571;50.930;6.926;2023-07-31T03:58:38;19.60;99.90
1165;DHT22;571;50.930;6.926;2023-07-31T04:01:50;19.60;99.90
1165;DHT22;571;50.930;6.926;2023-07-31T04:18:15;19.60;99.90
1165;DHT22;571;50.930;6.926;2023-07-31T06:16:39;20.10;99.90
1165;DHT22;571;50.930;6.926;2023-07-31T06:26:14;20.10;99.90
1165;DHT22;571;50.930;6.926;2023-07-31T06:50:15;20.20;99.90
1165;DHT22;571;50.930;6.926;2023-07-31T06:53:18;20.20;99.90
1165;DHT22;571;50.930;6.926;2023-07-31T06:56:13;20.20;99.90
1165;DHT22;571;50.930;6.926;2023-07-31T07:11:13;20.50;99.90
1165;DHT22;571;50.930;6.926;2023-07-31T07:13:11;20.50;99.90
1165;DHT22;571;50.930;6.926;2023-07-31T07:15:54;20.60;99.90
1165;DHT22;571;50.930;6.926;2023-07-31T07:22:23;20.70;99.90
1165;DHT22;571;50.930;6.926;2023-07-31T07:29:17;20.70;99.90
1165;DHT22;571;50.930;6.926;2023-07-31T07:49:15;20.70;99.90
1165;DHT22;571;50.930;6.926;2023-07-31T07:59:57;20.60;99.90
1165;DHT22;571;50.930;6.926;2023-07-31T08:02:19;20.60;99.90
1165;DHT22;571;50.930;6.926;2023-07-31T08:05:17;20.60;99.90
1165;DHT22;571;50.930;6.926;2023-07-31T08:14:24;20.60;99.90
1165;DHT22;571;50.930;6.926;2023-07-31T08:25:25;20.50;99.90
1165;DHT22;571;50.930;6.926;2023-07-31T09:23:49;21.10;99.90
1165;DHT22;571;50.930;6.926;2023-07-31T09:30:12;21.20;99.90
1165;DHT22;571;50.930;6.926;2023-07-31T09:36:21;21.10;99.90
1165;DHT22;571;50.930;6.926;2023-07-31T09:39:10;21.20;99.90
1165;DHT22;571;50.930;6.926;2023-07-31T10:09:29;21.60;99.90
1165;DHT22;571;50.930;6.926;2023-07-31T10:12:30;21.60;99.90
1165;DHT22;571;50.930;6.926;2023-07-31T10:15:00;21.70;99.90
1165;DHT22;571;50.930;6.926;2023-07-31T10:20:52;21.80;99.30
1165;DHT22;571;50.930;6.926;2023-07-31T10:23:30;21.80;98.90
1165;DHT22;571;50.930;6.926;2023-07-31T10:26:20;21.70;98.70
1165;DHT22;571;50.930;6.926;2023-07-31T10:29:03;21.80;98.50
1165;DHT22;571;50.930;6.926;2023-07-31T10:35:31;21.80;98.30
1165;DHT22;571;50.930;6.926;2023-07-31T10:38:13;21.80;98.70
1165;DHT22;571;50.930;6.926;2023-07-31T10:40:50;21.90;98.60
1165;DHT22;571;50.930;6.926;2023-07-31T10:46:57;22.00;97.80
1165;DHT22;571;50.930;6.926;2023-07-31T10:49:48;22.00;97.30
1165;DHT22;571;50.930;6.926;2023-07-31T10:52:46;22.00;97.30
1165;DHT22;571;50.930;6.926;2023-07-31T10:59:12;21.90;97.70
1165;DHT22;571;50.930;6.926;2023-07-31T11:02:11;22.00;97.60
1165;DHT22;571;50.930;6.926;2023-07-31T11:05:19;22.10;98.00
1165;DHT22;571;50.930;6.926;2023-07-31T11:08:32;22.20;98.20
1165;DHT22;571;50.930;6.926;2023-07-31T11:11:29;22.20;98.40
1165;DHT22;571;50.930;6.926;2023-07-31T11:17:14;22.20;98.10
1165;DHT22;571;50.930;6.926;2023-07-31T11:20:00;22.10;98.50
1165;DHT22;571;50.930;6.926;2023-07-31T11:26:52;22.10;98.20
1165;DHT22;571;50.930;6.926;2023-07-31T11:30:03;22.00;98.70
1165;DHT22;571;50.930;6.926;2023-07-31T11:32:57;22.10;98.80
1165;DHT22;571;50.930;6.926;2023-07-31T11:39:15;22.20;97.70
1165;DHT22;571;50.930;6.926;2023-07-31T11:52:13;22.70;96.50
1165;DHT22;571;50.930;6.926;2023-07-31T11:55:50;22.80;95.80
1165;DHT22;571;50.930;6.926;2023-07-31T11:59:10;22.80;95.80
1165;DHT22;571;50.930;6.926;2023-07-31T12:02:21;22.80;96.00
1165;DHT22;571;50.930;6.926;2023-07-31T12:05:12;22.70;96.20
1165;DHT22;571;50.930;6.926;2023-07-31T12:15:31;22.50;96.80
1165;DHT22;571;50.930;6.926;2023-07-31T12:18:22;22.40;96.80
1165;DHT22;571;50.930;6.926;2023-07-31T12:21:31;22.40;96.60
1165;DHT22;571;50.930;6.926;2023-07-31T12:24:20;22.40;96.70
1165;DHT22;571;50.930;6.926;2023-07-31T12:46:00;22.40;97.60
1165;DHT22;571;50.930;6.926;2023-07-31T12:48:59;22.50;96.70
1165;DHT22;571;50.930;6.926;2023-07-31T12:55:25;22.50;97.00
1165;DHT22;571;50.930;6.926;2023-07-31T12:58:52;22.50;97.30
1165;DHT22;571;50.930;6.926;2023-07-31T13:01:32;22.50;97.50
1165;DHT22;571;50.930;6.926;2023-07-31T13:17:50;22.70;97.00
1165;DHT22;571;50.930;6.926;2023-07-31T13:23:57;22.70;96.60
1165;DHT22;571;50.930;6.926;2023-07-31T13:26:50;22.70;96.90
1165;DHT22;571;50.930;6.926;2023-07-31T13:29:26;22.80;96.60
1165;DHT22;571;50.930;6.926;2023-07-31T13:32:30;22.90;95.90
1165;DHT22;571;50.930;6.926;2023-07-31T13:38:50;22.90;95.70
1165;DHT22;571;50.930;6.926;2023-07-31T13:41:34;23.00;95.40
1165;DHT22;571;50.930;6.926;2023-07-31T13:44:18;23.00;95.20
1165;DHT22;571;50.930;6.926;2023-07-31T13:46:51;23.10;95.10
1165;DHT22;571;50.930;6.926;2023-07-31T13:49:34;23.20;95.10
1165;DHT22;571;50.930;6.926;2023-07-31T13:55:25;23.40;94.90
1165;DHT22;571;50.930;6.926;2023-07-31T14:04:53;23.90;95.10
1165;DHT22;571;50.930;6.926;2023-07-31T14:07:24;24.40;93.30
1165;DHT22;571;50.930;6.926;2023-07-31T14:10:03;24.70;92.50
1165;DHT22;571;50.930;6.926;2023-07-31T14:13:03;24.80;91.70
1165;DHT22;571;50.930;6.926;2023-07-31T14:16:19;24.80;91.80
1165;DHT22;571;50.930;6.926;2023-07-31T14:18:50;24.70;91.80
1165;DHT22;571;50.930;6.926;2023-07-31T14:21:53;24.60;91.90
1165;DHT22;571;50.930;6.926;2023-07-31T14:24:42;24.50;91.80
1165;DHT22;571;50.930;6.926;2023-07-31T14:27:21;24.30;91.90
1165;DHT22;571;50.930;6.926;2023-07-31T14:30:02;24.10;92.00
1165;DHT22;571;50.930;6.926;2023-07-31T14:32:56;24.00;92.50
1165;DHT22;571;50.930;6.926;2023-07-31T14:35:33;23.80;92.80
1165;DHT22;571;50.930;6.926;2023-07-31T14:38:13;23.70;92.90
1165;DHT22;571;50.930;6.926;2023-07-31T14:40:57;23.60;93.00
1165;DHT22;571;50.930;6.926;2023-07-31T15:06:51;23.10;93.50
1165;DHT22;571;50.930;6.926;2023-07-31T15:09:47;23.10;93.80
1165;DHT22;571;50.930;6.926;2023-07-31T15:12:47;23.00;93.60
1165;DHT22;571;50.930;6.926;2023-07-31T15:15:52;23.00;93.80
1165;DHT22;571;50.930;6.926;2023-07-31T15:25:10;23.00;94.10
1165;DHT22;571;50.930;6.926;2023-07-31T15:31:24;22.90;93.90
1165;DHT22;571;50.930;6.926;2023-07-31T15:34:16;22.90;94.00
1165;DHT22;571;50.930;6.926;2023-07-31T15:36:51;22.80;93.90
1165;DHT22;571;50.930;6.926;2023-07-31T15:39:25;22.80;93.80
1165;DHT22;571;50.930;6.926;2023-07-31T15:44:55;22.80;94.10
1165;DHT22;571;50.930;6.926;2023-07-31T15:50:58;22.70;94.00
1165;DHT22;571;50.930;6.926;2023-07-31T15:53:45;22.60;94.00
1165;DHT22;571;50.930;6.926;2023-07-31T15:56:13;22.60;94.30
1165;DHT22;571;50.930;6.926;2023-07-31T15:58:50;22.60;94.70
1165;DHT22;571;50.930;6.926;2023-07-31T16:01:32;22.60;95.20
1165;DHT22;571;50.930;6.926;2023-07-31T16:04:15;22.50;95.40
1165;DHT22;571;50.930;6.926;2023-07-31T16:09:48;22.40;95.50
1165;DHT22;571;50.930;6.926;2023-07-31T16:20:49;22.30;96.80
1165;DHT22;571;50.930;6.926;2023-07-31T16:23:35;22.30;97.10
1165;DHT22;571;50.930;6.926;2023-07-31T16:26:35;22.10;97.40
1165;DHT22;571;50.930;6.926;2023-07-31T16:29:33;22.10;97.90
1165;DHT22;571;50.930;6.926;2023-07-31T16:32:13;22.20;98.10
1165;DHT22;571;50.930;6.926;2023-07-31T16:34:48;22.20;98.00
1165;DHT22;571;50.930;6.926;2023-07-31T16:37:19;22.10;98.40
1165;DHT22;571;50.930;6.926;2023-07-31T16:39:48;22.10;98.60
1165;DHT22;571;50.930;6.926;2023-07-31T16:42:19;22.00;99.50
1165;DHT22;571;50.930;6.926;2023-07-31T16:44:48;21.90;99.70
1165;DHT22;571;50.930;6.926;2023-07-31T16:47:17;21.90;99.90
1165;DHT22;571;50.930;6.926;2023-07-31T16:49:46;21.70;99.90
1165;DHT22;571;50.930;6.926;2023-07-31T16:52:26;21.70;99.90
1165;DHT22;571;50.930;6.926;2023-07-31T16:55:03;21.60;99.90
1165;DHT22;571;50.930;6.926;2023-07-31T16:58:03;21.60;99.90
1165;DHT22;571;50.930;6.926;2023-07-31T17:01:31;21.60;99.90
1165;DHT22;571;50.930;6.926;2023-07-31T17:04:22;21.50;99.90
1165;DHT22;571;50.930;6.926;2023-07-31T17:07:04;21.50;99.90
1165;DHT22;571;50.930;6.926;2023-07-31T17:14:03;21.40;99.90
1165;DHT22;571;50.930;6.926;2023-07-31T17:23:54;21.20;99.90
1165;DHT22;571;50.930;6.926;2023-07-31T17:29:27;21.10;99.90
1165;DHT22;571;50.930;6.926;2023-07-31T17:32:11;21.10;99.90
1165;DHT22;571;50.930;6.926;2023-07-31T17:34:48;21.10;99.90
1165;DHT22;571;50.930;6.926;2023-07-31T17:37:22;21.00;99.90
1165;DHT22;571;50.930;6.926;2023-07-31T17:39:54;21.00;99.90
1165;DHT22;571;50.930;6.926;2023-07-31T17:42:47;21.00;99.90
1165;DHT22;571;50.930;6.926;2023-07-31T17:48:18;21.00;99.90
1165;DHT22;571;50.930;6.926;2023-07-31T17:50:57;20.90;99.90
1165;DHT22;571;50.930;6.926;2023-07-31T17:53:29;20.90;99.90
1165;DHT22;571;50.930;6.926;2023-07-31T18:00:00;20.80;99.90
1165;DHT22;571;50.930;6.926;2023-07-31T18:04:06;20.80;99.90
1165;DHT22;571;50.930;6.926;2023-07-31T18:06:28;20.70;99.90
1165;DHT22;571;50.930;6.926;2023-07-31T18:09:12;20.70;99.90
1165;DHT22;571;50.930;6.926;2023-07-31T18:11:47;20.70;99.90
1165;DHT22;571;50.930;6.926;2023-07-31T18:14:23;20.60;99.90
1165;DHT22;571;50.930;6.926;2023-07-31T18:20:20;20.60;99.90
1165;DHT22;571;50.930;6.926;2023-07-31T18:22:54;20.40;99.90
1165;DHT22;571;50.930;6.926;2023-07-31T18:25:53;20.50;99.90
1165;DHT22;571;50.930;6.926;2023-07-31T18:28:23;20.50;99.90
1165;DHT22;571;50.930;6.926;2023-07-31T18:31:07;20.50;99.90
1165;DHT22;571;50.930;6.926;2023-07-31T18:33:48;20.50;99.90
1165;DHT22;571;50.930;6.926;2023-07-31T18:36:29;20.50;99.90
1165;DHT22;571;50.930;6.926;2023-07-31T18:39:23;20.50;99.90
1165;DHT22;571;50.930;6.926;2023-07-31T18:42:00;20.40;99.90
1165;DHT22;571;50.930;6.926;2023-07-31T18:50:55;20.30;99.90
1165;DHT22;571;50.930;6.926;2023-07-31T19:03:33;20.30;99.90
1165;DHT22;571;50.930;6.926;2023-07-31T19:06:53;20.20;99.90
1165;DHT22;571;50.930;6.926;2023-07-31T19:10:23;20.10;99.90
1165;DHT22;571;50.930;6.926;2023-07-31T19:15:53;20.00;99.90
1165;DHT22;571;50.930;6.926;2023-07-31T19:19:29;20.10;99.90
1165;DHT22;571;50.930;6.926;2023-07-31T19:25:06;20.00;99.90
1165;DHT22;571;50.930;6.926;2023-07-31T19:31:04;20.00;99.90
1165;DHT22;571;50.930;6.926;2023-07-31T19:46:59;19.90;99.90
1165;DHT22;571;50.930;6.926;2023-07-31T19:51:12;19.90;99.90
1165;DHT22;571;50.930;6.926;2023-07-31T19:53:07;19.90;99.90
1165;DHT22;571;50.930;6.926;2023-07-31T19:56:01;19.90;99.90
1165;DHT22;571;50.930;6.926;2023-07-31T19:59:09;19.80;99.90
1165;DHT22;571;50.930;6.926;2023-07-31T20:02:22;19.80;99.90
1165;DHT22;571;50.930;6.926;2023-07-31T20:05:22;19.80;99.90
1165;DHT22;571;50.930;6.926;2023-07-31T20:14:24;19.70;99.90
1165;DHT22;571;50.930;6.926;2023-07-31T20:17:31;19.70;99.90
1165;DHT22;571;50.930;6.926;2023-07-31T20:26:44;19.70;99.90
1165;DHT22;571;50.930;6.926;2023-07-31T20:29:38;19.70;99.90
1165;DHT22;571;50.930;6.926;2023-07-31T20:32:32;19.70;99.90
1165;DHT22;571;50.930;6.926;2023-07-31T20:35:23;19.70;99.90
1165;DHT22;571;50.930;6.926;2023-07-31T20:37:58;19.60;99.90
1165;DHT22;571;50.930;6.926;2023-07-31T20:40:55;19.70;99.90
1165;DHT22;571;50.930;6.926;2023-07-31T20:43:52;19.70;99.90
1165;DHT22;571;50.930;6.926;2023-07-31T20:46:25;19.70;99.90
1165;DHT22;571;50.930;6.926;2023-07-31T20:49:08;19.70;99.90
1165;DHT22;571;50.930;6.926;2023-07-31T20:51:58;19.70;99.90
1165;DHT22;571;50.930;6.926;2023-07-31T20:54:28;19.70;99.90
1165;DHT22;571;50.930;6.926;2023-07-31T20:56:55;19.70;99.90
1165;DHT22;571;50.930;6.926;2023-07-31T20:59:42;19.70;99.90
1165;DHT22;571;50.930;6.926;2023-07-31T21:02:18;19.80;99.90
1165;DHT22;571;50.930;6.926;2023-07-31T21:04:56;19.70;99.90
1165;DHT22;571;50.930;6.926;2023-07-31T21:07:23;19.70;99.90
1165;DHT22;571;50.930;6.926;2023-07-31T21:09:50;19.70;99.90
1165;DHT22;571;50.930;6.926;2023-07-31T21:12:17;19.70;99.90
1165;DHT22;571;50.930;6.926;2023-07-31T21:14:47;19.70;99.90
1165;DHT22;571;50.930;6.926;2023-07-31T21:17:16;19.70;99.90
1165;DHT22;571;50.930;6.926;2023-07-31T21:19:46;19.70;99.90
1165;DHT22;571;50.930;6.926;2023-07-31T21:22:18;19.70;99.90
1165;DHT22;571;50.930;6.926;2023-07-31T21:24:52;19.70;99.90
1165;DHT22;571;50.930;6.926;2023-07-31T21:27:25;19.70;99.90
1165;DHT22;571;50.930;6.926;2023-07-31T21:30:00;19.70;99.90
1165;DHT22;571;50.930;6.926;2023-07-31T21:32:29;19.70;99.90
1165;DHT22;571;50.930;6.926;2023-07-31T21:34:58;19.70;99.90
1165;DHT22;571;50.930;6.926;2023-07-31T21:37:26;19.70;99.90
1165;DHT22;571;50.930;6.926;2023-07-31T21:40:06;19.70;99.90
1165;DHT22;571;50.930;6.926;2023-07-31T21:42:37;19.70;99.90
1165;DHT22;571;50.930;6.926;2023-07-31T21:45:06;19.70;99.90
1165;DHT22;571;50.930;6.926;2023-07-31T21:47:33;19.70;99.90
1165;DHT22;571;50.930;6.926;2023-07-31T21:50:20;19.70;99.90
1165;DHT22;571;50.930;6.926;2023-07-31T21:52:54;19.70;99.90
1165;DHT22;571;50.930;6.926;2023-07-31T21:55:26;19.70;99.90
1165;DHT22;571;50.930;6.926;2023-07-31T21:57:59;19.70;99.90
1165;DHT22;571;50.930;6.926;2023-07-31T22:51:14;19.60;99.90
1165;DHT22;571;50.930;6.926;2023-07-31T22:53:41;19.50;99.90
1165;DHT22;571;50.930;6.926;2023-07-31T22:56:08;19.50;99.90
1165;DHT22;571;50.930;6.926;2023-07-31T22:58:35;19.50;99.90
1165;DHT22;571;50.930;6.926;2023-07-31T23:01:02;19.50;99.90
1165;DHT22;571;50.930;6.926;2023-07-31T23:03:30;19.50;99.90
1165;DHT22;571;50.930;6.926;2023-07-31T23:06:00;19.50;99.90
1165;DHT22;571;50.930;6.926;2023-07-31T23:08:30;19.50;99.90
1165;DHT22;571;50.930;6.926;2023-07-31T23:10:57;19.50;99.90
1165;DHT22;571;50.930;6.926;2023-07-31T23:13:29;19.40;99.90
1165;DHT22;571;50.930;6.926;2023-07-31T23:16:01;19.40;99.90
1165;DHT22;571;50.930;6.926;2023-07-31T23:18:29;19.40;99.90
1165;DHT22;571;50.930;6.926;2023-07-31T23:20:59;19.50;99.90
1165;DHT22;571;50.930;6.926;2023-07-31T23:23:28;19.50;99.90
1165;DHT22;571;50.930;6.926;2023-07-31T23:25:55;19.40;99.90
1165;DHT22;571;50.930;6.926;2023-07-31T23:28:27;19.40;99.90
1165;DHT22;571;50.930;6.926;2023-07-31T23:31:02;19.40;99.90
1165;DHT22;571;50.930;6.926;2023-07-31T23:33:32;19.40;99.90
1165;DHT22;571;50.930;6.926;2023-07-31T23:36:09;19.40;99.90
1165;DHT22;571;50.930;6.926;2023-07-31T23:38:38;19.40;99.90
1165;DHT22;571;50.930;6.926;2023-07-31T23:41:10;19.40;99.90
1165;DHT22;571;50.930;6.926;2023-07-31T23:43:50;19.40;99.90
1165;DHT22;571;50.930;6.926;2023-07-31T23:46:20;19.40;99.90
1165;DHT22;571;50.930;6.926;2023-07-31T23:48:51;19.40;99.90
1165;DHT22;571;50.930;6.926;2023-07-31T23:51:21;19.40;99.90
1165;DHT22;571;50.930;6.926;2023-07-31T23:53:49;19.40;99.90
1165;DHT22;571;50.930;6.926;2023-07-31T23:56:19;19.40;99.90
1165;DHT22;571;50.930;6.926;2023-07-31T23:58:48;19.40;99.90
